Time;durP1;ratioP1;P1;durP2;ratioP2;P2;SDS_P1;SDS_P2;PMS_P1;PMS_P2;Temp;Humidity;BMP_temperature;BMP_pressure;BME280_temperature;BME280_humidity;BME280_pressure;Samples;Min_cycle;Max_cycle;Signal;HPM_P1;HPM_P2
2022/12/12 04:58:23;;;;;;;15.55;8.57;;;;;;;1.96;57.51;99562.94;5606528;31;77185;-56
2022/12/12 05:01:32;;;;;;;16.87;9.35;;;;;;;1.96;57.51;99562.94;5583996;31;34238;-56
2022/12/12 05:04:45;;;;;;;14.68;8.63;;;;;;;1.46;61.62;99566.44;5583806;31;33632;-57
2022/12/12 05:07:54;;;;;;;14.40;8.90;;;;;;;1.22;59.93;99564.94;5584025;31;33963;-56
2022/12/12 05:11:00;;;;;;;15.10;8.02;;;;;;;1.24;58.79;99563.69;5583702;31;33527;-57
2022/12/12 05:14:07;;;;;;;13.38;8.15;;;;;;;1.27;65.84;99572.97;5583706;32;33897;-56
2022/12/12 05:17:14;;;;;;;13.02;8.13;;;;;;;1.16;57.90;99566.72;5583974;31;34240;-56
2022/12/12 05:20:17;;;;;;;12.70;8.07;;;;;;;0.99;57.93;99581.69;5583741;31;33748;-56
2022/12/12 05:23:19;;;;;;;13.85;8.93;;;;;;;1.10;58.77;99586.16;5583546;32;34223;-57
2022/12/12 05:26:27;;;;;;;13.98;8.60;;;;;;;1.13;58.34;99583.03;5583463;32;34574;-56
2022/12/12 05:29:30;;;;;;;15.75;9.77;;;;;;;1.09;58.46;99588.00;5583608;32;33613;-57
2022/12/12 05:32:33;;;;;;;13.80;8.43;;;;;;;1.04;59.37;99600.28;5583436;32;33704;-57
2022/12/12 05:35:35;;;;;;;14.73;8.68;;;;;;;0.97;59.45;99597.00;5583479;31;33717;-57
2022/12/12 05:38:38;;;;;;;15.63;9.25;;;;;;;1.09;60.72;99600.34;5583561;31;34292;-56
2022/12/12 05:41:40;;;;;;;15.77;8.93;;;;;;;1.12;59.17;99600.69;5583664;31;34402;-57
2022/12/12 05:44:43;;;;;;;14.30;9.40;;;;;;;1.02;58.26;99592.59;5574473;32;33600;-57
2022/12/12 05:47:46;;;;;;;14.18;8.52;;;;;;;1.04;58.82;99608.19;5570426;31;33745;-56
2022/12/12 05:50:48;;;;;;;14.10;9.02;;;;;;;1.05;58.79;99609.78;5579697;31;34422;-57
2022/12/12 05:53:52;;;;;;;15.35;9.85;;;;;;;1.10;60.80;99618.63;5580234;32;33694;-57
2022/12/12 05:56:54;;;;;;;17.17;10.30;;;;;;;1.06;58.76;99622.78;5579408;32;33785;-56
2022/12/12 05:59:56;;;;;;;16.02;9.40;;;;;;;1.16;58.64;99619.53;5580956;32;34242;-57
2022/12/12 06:02:59;;;;;;;16.77;10.32;;;;;;;0.99;65.12;99621.28;5581932;31;34191;-56
2022/12/12 06:06:01;;;;;;;18.17;10.70;;;;;;;0.86;59.43;99628.47;5582276;32;33220;-56
2022/12/12 06:09:04;;;;;;;16.95;10.00;;;;;;;0.83;60.49;99621.03;5569114;32;33592;-56
2022/12/12 06:12:06;;;;;;;17.20;9.80;;;;;;;0.93;59.39;99626.50;5567613;32;34372;-56
2022/12/12 06:15:09;;;;;;;19.45;10.93;;;;;;;0.88;60.97;99628.22;5568009;32;34340;-56
2022/12/12 06:18:12;;;;;;;18.73;9.95;;;;;;;0.78;60.48;99643.84;5562544;32;34015;-56
2022/12/12 06:21:14;;;;;;;18.15;10.50;;;;;;;0.87;63.22;99637.19;5568873;32;34288;-56
2022/12/12 06:24:16;;;;;;;17.05;10.48;;;;;;;1.00;59.20;99644.03;5566325;32;33901;-56
2022/12/12 06:27:18;;;;;;;19.12;10.73;;;;;;;1.03;59.08;99651.47;5567648;32;34099;-56
2022/12/12 06:30:21;;;;;;;17.95;10.48;;;;;;;1.10;57.81;99647.66;5568941;32;34314;-57
2022/12/12 06:33:23;;;;;;;18.25;11.38;;;;;;;1.15;58.21;99657.50;5567553;32;33161;-57
2022/12/12 06:36:25;;;;;;;16.02;10.38;;;;;;;1.18;57.81;99663.09;5568459;32;33703;-57
2022/12/12 06:39:28;;;;;;;18.10;10.60;;;;;;;1.20;57.66;99662.88;5567994;32;34929;-57
2022/12/12 06:42:30;;;;;;;14.60;9.45;;;;;;;1.30;64.59;99672.84;5569377;32;33686;-57
2022/12/12 06:45:32;;;;;;;15.43;10.05;;;;;;;1.37;56.64;99676.13;5566018;32;33665;-57
2022/12/12 06:48:36;;;;;;;17.92;11.00;;;;;;;1.31;57.25;99672.59;5566661;32;33616;-56
2022/12/12 06:51:42;;;;;;;18.92;11.77;;;;;;;1.22;58.57;99676.62;5566724;32;33648;-57
2022/12/12 06:54:46;;;;;;;18.58;11.88;;;;;;;1.26;59.48;99691.00;5564494;32;33869;-57
2022/12/12 06:57:48;;;;;;;19.02;11.27;;;;;;;1.31;59.01;99688.44;5567380;32;34177;-57
2022/12/12 07:00:52;;;;;;;17.12;10.68;;;;;;;1.44;63.36;99697.13;5564730;32;33477;-56
2022/12/12 07:03:54;;;;;;;17.80;10.50;;;;;;;1.53;61.40;99685.94;5567542;32;33751;-57
2022/12/12 07:06:57;;;;;;;18.00;10.88;;;;;;;1.58;75.28;99698.41;5567768;32;34125;-57
2022/12/12 07:09:59;;;;;;;15.70;10.30;;;;;;;1.65;74.10;99689.28;5567192;32;34231;-57
2022/12/12 07:13:01;;;;;;;22.77;10.98;;;;;;;1.64;59.53;99698.25;5565920;32;34438;-57
2022/12/12 07:16:04;;;;;;;18.08;10.68;;;;;;;1.57;58.73;99700.25;5567620;32;34115;-57
2022/12/12 07:19:08;;;;;;;18.42;11.50;;;;;;;1.51;61.24;99695.91;5565546;32;34433;-57
2022/12/12 07:22:10;;;;;;;16.67;10.50;;;;;;;1.31;57.13;99699.00;5560500;32;32001;-57
2022/12/12 07:25:13;;;;;;;19.67;12.10;;;;;;;1.55;79.83;99704.16;5563934;32;33677;-57
2022/12/12 07:28:16;;;;;;;18.92;10.55;;;;;;;1.38;58.07;99707.56;5560513;32;33979;-57
2022/12/12 07:31:21;;;;;;;16.25;10.23;;;;;;;1.34;57.64;99713.56;5563584;32;33579;-57
2022/12/12 07:34:24;;;;;;;17.08;9.60;;;;;;;1.32;69.83;99716.44;5564031;32;34127;-57
2022/12/12 07:37:26;;;;;;;20.85;11.07;;;;;;;1.34;65.64;99718.84;5565762;32;33751;-57
2022/12/12 07:40:28;;;;;;;17.17;10.57;;;;;;;1.38;58.00;99720.78;5567397;32;34413;-57
2022/12/12 07:43:31;;;;;;;16.90;10.30;;;;;;;1.46;58.80;99713.50;5567307;32;33949;-57
2022/12/12 07:46:34;;;;;;;15.82;9.85;;;;;;;1.70;65.07;99717.66;5565127;32;33851;-57
2022/12/12 07:49:37;;;;;;;15.50;9.63;;;;;;;1.99;82.69;99720.25;5564838;32;33568;-57
2022/12/12 07:52:39;;;;;;;15.23;9.70;;;;;;;1.77;57.36;99728.06;5566242;32;33468;-57
2022/12/12 07:55:41;;;;;;;16.33;9.95;;;;;;;1.74;57.92;99724.06;5567004;32;34334;-57
2022/12/12 07:58:44;;;;;;;15.35;9.02;;;;;;;1.76;57.95;99719.34;5565886;32;33717;-57
2022/12/12 08:01:46;;;;;;;16.52;9.77;;;;;;;1.57;62.46;99728.53;5566301;32;34384;-57
2022/12/12 08:04:49;;;;;;;18.02;10.07;;;;;;;1.25;55.98;99734.25;5565768;32;34195;-57
2022/12/12 08:07:51;;;;;;;16.95;9.48;;;;;;;1.28;58.24;99741.72;5567000;32;33709;-57
2022/12/12 08:10:53;;;;;;;17.20;9.52;;;;;;;1.13;59.14;99744.88;5568246;32;33886;-57
2022/12/12 08:13:55;;;;;;;16.60;8.90;;;;;;;1.28;58.10;99747.00;5566705;32;33275;-57
2022/12/12 08:16:58;;;;;;;16.30;10.02;;;;;;;1.54;64.72;99739.56;5565898;32;33605;-56
2022/12/12 08:20:00;;;;;;;14.63;9.43;;;;;;;1.68;60.52;99751.44;5565141;32;33694;-57
2022/12/12 08:23:03;;;;;;;14.77;8.60;;;;;;;1.61;57.35;99753.41;5565562;32;34277;-57
2022/12/12 08:26:10;;;;;;;15.00;8.85;;;;;;;1.39;55.95;99755.91;5567053;32;33479;-57
2022/12/12 08:29:13;;;;;;;17.83;9.43;;;;;;;1.41;57.36;99748.56;5567951;32;33635;-57
2022/12/12 08:32:16;;;;;;;14.70;9.02;;;;;;;1.82;65.54;99763.34;5566854;32;32615;-57
2022/12/12 08:35:18;;;;;;;14.35;9.10;;;;;;;1.84;57.20;99761.25;5567948;32;33870;-57
2022/12/12 08:38:20;;;;;;;16.12;9.73;;;;;;;2.27;60.40;99766.97;5559090;32;33921;-56
2022/12/12 08:41:24;;;;;;;14.77;9.38;;;;;;;2.11;57.93;99756.13;5560007;32;34314;-57
2022/12/12 08:44:26;;;;;;;14.75;8.75;;;;;;;2.03;56.18;99769.75;5562663;32;33586;-57
2022/12/12 08:47:28;;;;;;;13.75;8.43;;;;;;;1.94;55.12;99755.31;5564876;32;33692;-57
2022/12/12 08:50:30;;;;;;;16.45;8.95;;;;;;;1.79;55.26;99755.09;5566795;32;33790;-57
2022/12/12 08:53:32;;;;;;;17.87;8.73;;;;;;;1.71;55.24;99748.31;5558816;32;33600;-57
2022/12/12 08:56:35;;;;;;;13.45;8.32;;;;;;;1.91;56.41;99752.34;5565763;32;33596;-57
2022/12/12 08:59:39;;;;;;;13.00;8.05;;;;;;;2.04;56.36;99747.56;5567434;32;33594;-57
2022/12/12 09:02:41;;;;;;;12.48;7.95;;;;;;;1.85;56.32;99743.53;5566306;32;33601;-57
2022/12/12 09:05:44;;;;;;;12.45;7.53;;;;;;;1.84;53.53;99745.38;5567449;32;33395;-57
2022/12/12 09:08:47;;;;;;;12.15;7.35;;;;;;;1.82;56.15;99742.19;5567626;32;33826;-57
2022/12/12 09:11:49;;;;;;;12.95;7.60;;;;;;;1.79;68.42;99744.50;5555055;32;33826;-57
2022/12/12 09:14:51;;;;;;;15.98;8.75;;;;;;;2.00;55.24;99745.66;5567081;32;33776;-57
2022/12/12 09:17:53;;;;;;;11.82;7.60;;;;;;;2.09;54.91;99747.66;5564553;32;34055;-58
2022/12/12 09:20:57;;;;;;;13.85;8.27;;;;;;;2.19;54.94;99756.81;5556696;32;31775;-57
2022/12/12 09:24:00;;;;;;;13.23;8.43;;;;;;;1.94;53.91;99752.69;5566403;32;33618;-57
2022/12/12 09:27:03;;;;;;;11.52;7.00;;;;;;;1.67;54.07;99768.34;5565495;32;34315;-57
2022/12/12 09:30:06;;;;;;;12.75;7.30;;;;;;;1.38;55.08;99773.59;5557360;32;34401;-56
2022/12/12 09:33:09;;;;;;;12.32;7.87;;;;;;;1.36;56.01;99767.75;5564793;32;34205;-57
2022/12/12 09:36:12;;;;;;;13.35;7.43;;;;;;;1.74;56.16;99770.84;5563112;32;34055;-57
2022/12/12 09:39:14;;;;;;;12.68;7.15;;;;;;;1.81;54.24;99774.13;5562022;32;34481;-57
2022/12/12 09:42:30;;;;;;;14.48;8.82;;;;;;;1.60;58.02;99773.75;5565914;32;33590;-57
2022/12/12 09:45:35;;;;;;;16.30;8.55;;;;;;;1.96;60.80;99778.91;5568350;32;34494;-57
2022/12/12 09:48:42;;;;;;;11.82;7.68;;;;;;;1.84;55.80;99765.72;5567698;32;34341;-56
2022/12/12 09:51:47;;;;;;;13.45;7.32;;;;;;;1.84;55.49;99758.59;5567538;32;33923;-57
2022/12/12 09:54:50;;;;;;;13.95;7.78;;;;;;;1.82;60.85;99760.69;5567361;32;34098;-57
2022/12/12 09:58:03;;;;;;;13.68;7.68;;;;;;;1.60;55.57;99757.09;5565584;32;33708;-57
2022/12/12 10:01:35;;;;;;;13.50;8.52;;;;;;;1.68;54.84;99759.34;5565669;32;32972;-57
2022/12/12 10:04:40;;;;;;;13.20;8.20;;;;;;;1.75;56.46;99759.22;5564656;32;33662;-58
2022/12/12 10:07:48;;;;;;;13.68;8.18;;;;;;;1.80;55.90;99770.69;5561133;32;33645;-58
2022/12/12 10:10:58;;;;;;;13.98;7.93;;;;;;;2.00;54.94;99769.44;5561941;32;33750;-57
2022/12/12 10:14:03;;;;;;;13.57;8.00;;;;;;;2.13;58.23;99782.34;5561798;32;33795;-57
2022/12/12 10:17:13;;;;;;;14.40;8.50;;;;;;;1.98;55.02;99774.16;5561270;32;34009;-56
2022/12/12 10:20:21;;;;;;;12.02;8.00;;;;;;;2.29;68.24;99773.63;5559674;32;34313;-57
2022/12/12 10:23:34;;;;;;;12.70;7.85;;;;;;;2.08;54.02;99791.00;5566210;32;34615;-56
2022/12/12 10:26:41;;;;;;;14.60;8.77;;;;;;;2.15;56.99;99776.81;5563604;32;33524;-58
2022/12/12 10:29:47;;;;;;;11.90;8.00;;;;;;;2.14;59.87;99778.66;5567015;32;33655;-56
2022/12/12 10:33:10;;;;;;;14.85;8.27;;;;;;;2.18;54.25;99779.78;5565654;32;33852;-56
2022/12/12 10:36:31;;;;;;;11.45;7.03;;;;;;;1.79;55.40;99792.06;5566677;32;32318;-57
2022/12/12 10:39:53;;;;;;;13.25;8.07;;;;;;;1.99;55.78;99787.16;5567966;32;34325;-56
2022/12/12 10:43:07;;;;;;;12.30;7.78;;;;;;;2.01;56.20;99797.47;5563631;32;33738;-57
2022/12/12 10:46:21;;;;;;;12.30;8.00;;;;;;;1.86;54.21;99813.88;5566053;32;33820;-57
2022/12/12 10:49:24;;;;;;;10.57;6.97;;;;;;;1.60;56.30;99807.31;5562874;32;34396;-57
2022/12/12 10:52:26;;;;;;;11.80;7.72;;;;;;;1.92;66.27;99805.00;5569527;32;34276;-57
2022/12/12 10:55:57;;;;;;;11.65;8.57;;;;;;;1.77;56.85;99784.38;5568976;32;34475;-57
2022/12/12 10:59:02;;;;;;;12.00;7.95;;;;;;;2.08;61.47;99784.91;5567767;32;34375;-57
2022/12/12 11:02:21;;;;;;;12.40;7.97;;;;;;;2.42;57.20;99782.28;5566720;32;33188;-57
2022/12/12 11:05:33;;;;;;;9.27;6.37;;;;;;;2.47;58.37;99787.66;5565858;32;34472;-57
2022/12/12 11:08:36;;;;;;;10.00;6.68;;;;;;;2.28;52.98;99795.03;5566940;32;33642;-57
2022/12/12 11:11:38;;;;;;;12.40;7.20;;;;;;;1.95;53.69;99786.00;5568299;32;33448;-57
2022/12/12 11:14:47;;;;;;;11.15;7.12;;;;;;;1.72;54.79;99788.75;5565912;32;33298;-57
2022/12/12 11:17:49;;;;;;;11.02;6.97;;;;;;;1.93;54.54;99796.03;5566550;32;33350;-57
2022/12/12 11:20:55;;;;;;;11.15;7.10;;;;;;;2.02;55.29;99791.12;5564045;32;33728;-57
2022/12/12 11:23:59;;;;;;;10.25;6.95;;;;;;;2.09;56.81;99791.81;5556880;32;33738;-57
2022/12/12 11:27:05;;;;;;;12.32;6.90;;;;;;;2.25;53.42;99800.78;5558495;32;33738;-56
2022/12/12 11:30:25;;;;;;;11.55;7.97;;;;;;;1.83;54.09;99793.19;5566769;32;33948;-57
2022/12/12 11:33:33;;;;;;;13.15;7.40;;;;;;;1.81;57.25;99801.34;5567243;32;34455;-56
2022/12/12 11:36:39;;;;;;;11.35;7.20;;;;;;;1.80;56.89;99805.03;5565349;32;34384;-57
2022/12/12 11:39:44;;;;;;;10.48;7.10;;;;;;;1.84;57.40;99814.09;5565569;32;34357;-57
2022/12/12 11:42:48;;;;;;;11.40;7.45;;;;;;;1.89;68.83;99802.84;5557765;32;34403;-54
2022/12/12 11:45:57;;;;;;;11.95;6.97;;;;;;;1.74;58.67;99823.69;5563645;32;34428;-54
2022/12/12 11:49:02;;;;;;;11.75;7.90;;;;;;;1.49;61.12;99816.06;5560978;32;33828;-54
2022/12/12 11:52:18;;;;;;;18.60;8.10;;;;;;;1.65;72.74;99810.81;5557790;32;33832;-54
2022/12/12 11:56:05;;;;;;;12.57;8.35;;;;;;;1.64;61.95;99825.09;5552884;32;34293;-55
2022/12/12 11:59:26;;;;;;;10.65;7.03;;;;;;;1.46;61.94;99827.09;5562352;32;33287;-55
2022/12/12 12:02:47;;;;;;;12.85;8.27;;;;;;;1.49;64.51;99835.38;5564551;32;34341;-55
2022/12/12 12:06:14;;;;;;;13.57;8.25;;;;;;;1.71;64.43;99838.16;5562160;32;33657;-57
2022/12/12 12:09:24;;;;;;;11.80;7.57;;;;;;;1.43;65.38;99831.00;5560984;32;33760;-55
2022/12/12 12:12:47;;;;;;;12.07;7.50;;;;;;;1.43;69.69;99832.84;5559885;32;33739;-54
2022/12/12 12:15:55;;;;;;;11.98;7.97;;;;;;;1.51;66.85;99832.47;5555042;32;33830;-55
2022/12/12 12:19:23;;;;;;;12.05;7.65;;;;;;;1.55;63.27;99826.47;5563901;32;34515;-55
2022/12/12 12:22:47;;;;;;;12.70;7.97;;;;;;;1.58;66.00;99828.66;5558940;32;33820;-55
2022/12/12 12:25:56;;;;;;;10.55;7.03;;;;;;;1.40;66.37;99823.56;5562415;32;33624;-55
2022/12/12 12:29:15;;;;;;;11.90;7.40;;;;;;;1.57;63.91;99819.13;5561837;32;34994;-55
2022/12/12 12:32:35;;;;;;;11.43;7.35;;;;;;;1.71;67.38;99824.94;5557066;32;33536;-57
2022/12/12 12:35:52;;;;;;;10.50;6.95;;;;;;;1.41;61.40;99823.31;5563335;32;33682;-55
2022/12/12 12:39:09;;;;;;;9.98;6.55;;;;;;;1.51;63.10;99821.91;5565115;32;33788;-55
2022/12/12 12:42:22;;;;;;;11.70;7.25;;;;;;;1.44;64.59;99831.81;5563921;32;33646;-55
2022/12/12 12:45:44;;;;;;;11.60;7.40;;;;;;;1.46;64.15;99812.06;5557618;32;34466;-55
2022/12/12 12:48:54;;;;;;;12.27;7.43;;;;;;;1.46;64.68;99817.34;5568067;32;34263;-55
2022/12/12 12:52:01;;;;;;;13.02;7.97;;;;;;;1.57;63.49;99820.97;5561104;32;33647;-55
2022/12/12 12:55:12;;;;;;;11.50;7.07;;;;;;;1.76;63.93;99826.91;5564592;32;33608;-55
2022/12/12 12:58:21;;;;;;;15.88;7.90;;;;;;;1.53;62.16;99828.56;5565015;32;34156;-55
2022/12/12 13:01:30;;;;;;;12.20;7.10;;;;;;;1.56;67.08;99840.53;5567485;32;33593;-55
2022/12/12 13:05:05;;;;;;;12.63;7.90;;;;;;;1.73;63.47;99830.00;5567113;32;34365;-55
2022/12/12 13:08:25;;;;;;;11.75;7.82;;;;;;;1.72;64.55;99842.41;5567083;32;33833;-55
2022/12/12 13:11:39;;;;;;;12.27;7.75;;;;;;;1.86;62.90;99835.81;5567779;32;33761;-55
2022/12/12 13:14:50;;;;;;;10.93;7.32;;;;;;;1.80;63.28;99836.75;5551526;32;33688;-55
2022/12/12 13:18:00;;;;;;;10.63;7.22;;;;;;;1.88;65.11;99836.38;5559347;32;34393;-54
2022/12/12 13:21:31;;;;;;;12.30;7.90;;;;;;;1.88;65.39;99846.94;5567030;32;34325;-55
2022/12/12 13:24:47;;;;;;;14.50;7.55;;;;;;;1.81;65.04;99842.84;5565495;32;34460;-55
2022/12/12 13:27:53;;;;;;;13.10;7.00;;;;;;;1.77;63.13;99849.63;5566186;32;33756;-55
2022/12/12 13:31:13;;;;;;;;;;;;;;;1.77;62.60;99857.56;5566476;32;34517;-55
2022/12/12 13:34:20;;;;;;;12.57;6.85;;;;;;;1.57;63.74;99842.91;5567514;32;34706;-55
2022/12/12 13:37:22;;;;;;;11.23;7.00;;;;;;;1.87;62.32;99849.84;5567722;32;34613;-55
2022/12/12 13:40:28;;;;;;;9.40;6.05;;;;;;;1.70;61.67;99852.41;5567787;32;33629;-55
2022/12/12 13:43:33;;;;;;;9.95;6.40;;;;;;;1.47;61.08;99848.00;5568527;32;33786;-55
2022/12/12 13:46:37;;;;;;;9.93;6.80;;;;;;;1.48;62.73;99851.44;5565089;32;33694;-55
2022/12/12 13:49:44;;;;;;;11.10;6.55;;;;;;;1.51;64.06;99857.06;5562373;32;33717;-55
2022/12/12 13:53:06;;;;;;;10.52;6.47;;;;;;;1.71;64.07;99853.22;5569852;32;33731;-56
2022/12/12 13:56:45;;;;;;;10.32;6.07;;;;;;;1.61;60.71;99856.47;5569687;32;34441;-55
2022/12/12 13:59:56;;;;;;;10.27;6.18;;;;;;;1.50;69.77;99863.37;5545034;31;34539;-56
2022/12/12 14:03:21;;;;;;;10.68;6.62;;;;;;;1.35;60.25;99869.13;5569902;32;33644;-55
2022/12/12 14:06:28;;;;;;;12.30;6.97;;;;;;;1.64;67.73;99864.72;5570231;32;33728;-55
2022/12/12 14:09:39;;;;;;;12.32;6.45;;;;;;;1.47;59.28;99858.56;5570384;32;34331;-55
2022/12/12 14:12:50;;;;;;;10.20;5.72;;;;;;;1.50;61.01;99852.00;5569868;32;34487;-55
2022/12/12 14:16:15;;;;;;;10.07;7.00;;;;;;;1.45;59.73;99857.97;5570168;32;33828;-55
2022/12/12 14:19:28;;;;;;;12.60;7.00;;;;;;;1.51;58.69;99853.63;5569940;32;33634;-55
2022/12/12 14:22:36;;;;;;;11.48;7.65;;;;;;;1.50;61.78;99841.44;5569588;32;33857;-55
2022/12/12 14:25:40;;;;;;;11.85;7.28;;;;;;;1.43;68.43;99841.56;5569162;32;33746;-55
2022/12/12 14:28:42;;;;;;;12.02;7.05;;;;;;;1.59;62.45;99847.94;5569045;32;33524;-55
2022/12/12 14:32:05;;;;;;;11.12;6.87;;;;;;;1.55;61.72;99849.47;5569985;32;34447;-55
2022/12/12 14:35:32;;;;;;;11.80;7.07;;;;;;;1.64;60.30;99845.41;5550348;32;33748;-55
2022/12/12 14:38:34;;;;;;;12.07;7.70;;;;;;;1.65;61.45;99860.22;5551937;32;33756;-55
2022/12/12 14:41:38;;;;;;;13.93;7.68;;;;;;;1.52;59.99;99855.22;5549150;32;33817;-56
2022/12/12 14:44:43;;;;;;;14.27;7.72;;;;;;;1.63;60.08;99857.03;5568800;31;33668;-55
2022/12/12 14:48:08;;;;;;;12.93;7.43;;;;;;;1.64;63.29;99854.16;5569698;32;33778;-55
2022/12/12 14:51:13;;;;;;;11.98;8.27;;;;;;;1.60;60.13;99866.22;5569737;32;34414;-55
2022/12/12 14:54:18;;;;;;;12.43;7.85;;;;;;;1.40;60.56;99863.97;5568518;32;34356;-55
2022/12/12 14:57:23;;;;;;;14.43;8.13;;;;;;;1.28;63.11;99854.44;5566373;32;34093;-56
2022/12/12 15:00:26;;;;;;;11.90;8.18;;;;;;;1.33;61.91;99863.28;5567710;32;34442;-55
2022/12/12 15:03:41;;;;;;;13.75;7.72;;;;;;;1.52;61.33;99868.41;5560627;32;33757;-56
2022/12/12 15:06:51;;;;;;;14.02;8.00;;;;;;;1.78;70.52;99873.19;5569137;32;33885;-55
2022/12/12 15:09:54;;;;;;;14.35;7.40;;;;;;;1.91;64.43;99877.38;5569504;32;33813;-57
2022/12/12 15:12:56;;;;;;;14.93;8.55;;;;;;;1.93;61.53;99883.25;5569741;32;34444;-58
2022/12/12 15:15:58;;;;;;;14.23;8.20;;;;;;;1.96;60.34;99882.00;5569390;32;34358;-58
2022/12/12 15:19:12;;;;;;;13.15;8.38;;;;;;;1.92;59.70;99894.87;5569485;32;33675;-56
2022/12/12 15:22:23;;;;;;;15.50;8.73;;;;;;;1.95;61.17;99897.03;5567944;32;33742;-56
2022/12/12 15:25:29;;;;;;;13.20;8.65;;;;;;;2.05;65.34;99902.53;5550112;32;34421;-57
2022/12/12 15:28:31;;;;;;;13.48;9.00;;;;;;;2.67;83.79;99915.00;5549573;32;35060;-58
2022/12/12 15:31:33;;;;;;;13.57;8.95;;;;;;;2.44;59.81;99915.13;5562398;32;33595;-57
2022/12/12 15:34:40;;;;;;;13.95;8.48;;;;;;;2.43;65.89;99909.03;5569319;32;34517;-56
2022/12/12 15:37:42;;;;;;;16.55;10.00;;;;;;;2.35;65.41;99914.69;5569482;32;33790;-56
2022/12/12 15:40:55;;;;;;;15.20;9.10;;;;;;;2.61;61.89;99918.59;5568467;32;33625;-57
2022/12/12 15:43:57;;;;;;;12.85;8.70;;;;;;;2.87;68.96;99919.81;5569017;32;33753;-56
2022/12/12 15:47:00;;;;;;;16.80;9.52;;;;;;;2.89;79.54;99927.53;5569091;32;33779;-56
2022/12/12 15:50:15;;;;;;;17.25;9.60;;;;;;;2.66;60.61;99926.63;5569244;32;33757;-56
2022/12/12 15:53:21;;;;;;;14.95;8.95;;;;;;;2.44;60.83;99929.16;5569078;32;34379;-56
2022/12/12 15:56:27;;;;;;;14.80;8.88;;;;;;;2.31;60.84;99932.06;5569384;32;34234;-56
2022/12/12 15:59:32;;;;;;;13.60;8.68;;;;;;;2.30;61.29;99933.13;5569419;32;33884;-56
2022/12/12 16:02:34;;;;;;;15.68;10.13;;;;;;;2.16;61.59;99923.88;5569090;32;34354;-56
2022/12/12 16:05:38;;;;;;;13.77;9.40;;;;;;;2.15;61.73;99924.91;5569450;32;34523;-56
2022/12/12 16:08:53;;;;;;;20.20;10.02;;;;;;;2.16;62.86;99924.69;5569348;32;33807;-56
2022/12/12 16:11:58;;;;;;;14.02;8.98;;;;;;;2.08;60.42;99930.31;5569009;32;33715;-56
2022/12/12 16:15:17;;;;;;;15.65;9.23;;;;;;;1.92;61.78;99933.69;5569275;32;34242;-56
2022/12/12 16:18:23;;;;;;;14.13;9.25;;;;;;;1.86;63.36;99946.03;5569159;32;34394;-56
2022/12/12 16:21:26;;;;;;;14.00;8.98;;;;;;;1.82;70.59;99942.22;5567692;32;33849;-56
2022/12/12 16:24:29;;;;;;;13.82;9.02;;;;;;;1.82;61.80;99939.56;5568345;32;33658;-56
2022/12/12 16:27:31;;;;;;;12.57;8.10;;;;;;;1.68;61.81;99938.22;5569328;32;33884;-56
2022/12/12 16:30:35;;;;;;;12.80;7.80;;;;;;;1.77;61.81;99932.37;5569001;32;33914;-56
2022/12/12 16:33:39;;;;;;;16.17;7.95;;;;;;;1.73;61.89;99935.72;5563401;32;33450;-56
2022/12/12 16:36:41;;;;;;;28.42;18.70;;;;;;;1.85;63.32;99942.59;5556563;32;34681;-56
2022/12/12 16:39:43;;;;;;;26.75;16.00;;;;;;;1.74;61.83;99937.31;5568271;32;33768;-56
2022/12/12 16:43:00;;;;;;;11.90;7.37;;;;;;;1.86;67.10;99940.75;5568188;32;34375;-56
